createdAt,value
2018-02-24T00:02:19.486Z,32.25
2018-02-24T00:04:46.598Z,32.10
2018-02-24T00:07:12.998Z,34.28
2018-02-24T00:09:39.388Z,31.20
2018-02-24T00:12:06.507Z,32.00
2018-02-24T00:14:32.907Z,32.28
2018-02-24T00:16:59.319Z,31.80
2018-02-24T00:19:26.453Z,30.80
2018-02-24T00:21:52.930Z,32.40
2018-02-24T00:24:19.294Z,34.75
2018-02-24T00:26:45.694Z,33.53
2018-02-24T00:29:12.063Z,32.17
2018-02-24T00:31:38.463Z,30.67
2018-02-24T00:34:04.882Z,31.85
2018-02-24T00:36:31.249Z,32.67
2018-02-24T00:38:57.633Z,33.88
2018-02-24T00:41:24.765Z,32.67
2018-02-24T00:43:51.165Z,33.85
2018-02-24T00:46:17.562Z,31.77
2018-02-24T00:48:44.711Z,32.30
2018-02-24T00:51:11.921Z,30.25
2018-02-24T00:53:38.337Z,33.25
2018-02-24T00:56:04.761Z,28.02
2018-02-24T00:58:31.218Z,32.60
2018-02-24T01:00:57.597Z,34.22
2018-02-24T01:03:24.731Z,34.70
2018-02-24T01:05:51.124Z,31.62
2018-02-24T01:08:17.555Z,33.55
2018-02-24T01:10:43.962Z,32.38
2018-02-24T01:13:10.334Z,34.70
2018-02-24T01:15:36.739Z,34.85
2018-02-24T01:18:03.153Z,35.90
2018-02-24T01:20:30.367Z,35.15
2018-02-24T01:22:56.806Z,35.08
2018-02-24T01:25:23.211Z,35.08
2018-02-24T01:27:49.613Z,33.00
2018-02-24T01:30:16.740Z,36.28
2018-02-24T01:32:43.154Z,33.45
2018-02-24T01:35:09.596Z,32.70
2018-02-24T01:37:35.977Z,34.53
2018-02-24T01:40:02.414Z,34.95
2018-02-24T01:42:28.788Z,36.45
2018-02-24T01:44:55.187Z,35.60
2018-02-24T01:47:21.595Z,34.85
2018-02-24T01:49:48.713Z,35.97
2018-02-24T01:52:15.166Z,37.33
2018-02-24T01:54:41.538Z,36.58
2018-02-24T01:57:07.955Z,34.58
2018-02-24T01:59:35.120Z,36.40
2018-02-24T02:02:01.546Z,35.83
2018-02-24T02:04:28.014Z,36.30
2018-02-24T02:06:54.423Z,35.33
2018-02-24T02:09:20.851Z,37.10
2018-02-24T02:11:47.251Z,36.88
2018-02-24T02:14:13.627Z,39.17
2018-02-24T02:16:40.035Z,37.97
2018-02-24T02:19:07.171Z,36.75
2018-02-24T02:21:33.572Z,36.75
2018-02-24T02:23:59.975Z,36.83
2018-02-24T02:26:26.358Z,36.40
2018-02-24T02:28:52.765Z,36.90
2018-02-24T02:31:19.138Z,35.95
2018-02-24T02:33:45.517Z,35.60
2018-02-24T02:36:11.926Z,36.80
2018-02-24T02:38:39.065Z,36.85
2018-02-24T02:41:05.440Z,35.43
2018-02-24T02:43:31.829Z,34.35
2018-02-24T02:45:58.214Z,33.00
2018-02-24T02:48:24.623Z,33.10
2018-02-24T02:50:51.755Z,34.85
2018-02-24T02:53:19.004Z,33.97
2018-02-24T02:55:45.374Z,37.67
2018-02-24T02:58:11.783Z,35.90
2018-02-24T03:00:38.939Z,36.78
2018-02-24T03:03:05.307Z,34.30
2018-02-24T03:05:31.699Z,35.03
2018-02-24T03:07:59.213Z,35.40
2018-02-24T03:10:25.621Z,36.55
2018-02-24T03:12:52.023Z,33.70
2018-02-24T03:15:18.385Z,35.63
2018-02-24T03:17:44.785Z,34.20
2018-02-24T03:20:11.200Z,36.60
2018-02-24T03:22:37.633Z,35.42
2018-02-24T03:25:04.030Z,35.50
2018-02-24T03:27:30.413Z,37.25
2018-02-24T03:29:56.810Z,34.45
2018-02-24T03:32:23.178Z,35.50
2018-02-24T03:34:49.609Z,37.72
2018-02-24T03:37:16.040Z,35.15
2018-02-24T03:39:42.457Z,36.23
2018-02-24T03:42:08.906Z,37.28
2018-02-24T03:44:35.325Z,35.60
2018-02-24T03:47:01.798Z,35.70
2018-02-24T03:49:28.949Z,34.95
2018-02-24T03:51:56.083Z,36.20
2018-02-24T03:54:22.486Z,31.45
2018-02-24T03:56:48.875Z,36.10
2018-02-24T03:59:16.019Z,35.95
2018-02-24T04:01:42.459Z,35.15
2018-02-24T04:04:09.581Z,35.50
2018-02-24T04:06:40.887Z,35.00
2018-02-24T04:09:09.128Z,36.42
2018-02-24T04:11:35.666Z,34.38
2018-02-24T04:14:08.741Z,35.78
2018-02-24T04:16:35.168Z,36.78
2018-02-24T04:19:01.603Z,34.45
2018-02-24T04:21:27.997Z,35.90
2018-02-24T04:23:54.438Z,36.20
2018-02-24T04:26:20.889Z,35.10
2018-02-24T04:28:47.247Z,34.63
2018-02-24T04:31:13.686Z,35.05
2018-02-24T04:33:40.069Z,34.08
2018-02-24T04:36:06.501Z,34.50
2018-02-24T04:38:32.895Z,36.80
2018-02-24T04:40:59.270Z,37.00
2018-02-24T04:43:25.674Z,35.40
2018-02-24T04:45:52.218Z,37.03
2018-02-24T04:48:18.641Z,35.17
2018-02-24T04:50:45.020Z,36.13
2018-02-24T04:53:11.426Z,35.35
2018-02-24T04:55:37.847Z,31.60
2018-02-24T04:58:04.233Z,35.80
2018-02-24T05:00:30.660Z,36.13
2018-02-24T05:02:57.084Z,34.63
2018-02-24T05:05:23.478Z,35.95
2018-02-24T05:07:49.854Z,35.53
2018-02-24T05:10:16.285Z,35.75
2018-02-24T05:12:42.683Z,34.65
2018-02-24T05:15:09.132Z,36.15
2018-02-24T05:17:36.282Z,35.72
2018-02-24T05:20:02.718Z,34.83
2018-02-24T05:22:29.837Z,35.90
2018-02-24T05:24:56.276Z,34.78
2018-02-24T05:27:22.626Z,34.85
2018-02-24T05:29:49.025Z,34.88
2018-02-24T05:32:15.406Z,36.53
2018-02-24T05:34:42.617Z,34.75
2018-02-24T05:37:08.999Z,37.10
2018-02-24T05:39:36.138Z,34.70
2018-02-24T05:42:02.543Z,35.72
2018-02-24T05:44:28.909Z,35.88
2018-02-24T05:46:56.058Z,36.92
2018-02-24T05:49:22.423Z,35.47
2018-02-24T05:51:48.817Z,39.10
2018-02-24T05:54:15.188Z,36.13
2018-02-24T05:56:41.597Z,36.47
2018-02-24T05:59:08.779Z,35.80
2018-02-24T06:01:35.182Z,36.00
2018-02-24T06:04:02.328Z,34.67
2018-02-24T06:06:28.774Z,35.38
2018-02-24T06:08:55.910Z,34.28
2018-02-24T06:11:22.306Z,34.13
2018-02-24T06:13:48.715Z,32.72
2018-02-24T06:16:15.126Z,33.35
2018-02-24T06:18:42.254Z,32.95
2018-02-24T06:21:08.661Z,30.88
2018-02-24T06:23:35.031Z,31.10
2018-02-24T06:26:01.483Z,32.45
2018-02-24T06:28:28.606Z,32.05
2018-02-24T06:30:55.039Z,33.38
2018-02-24T06:33:21.446Z,29.90
2018-02-24T06:35:47.854Z,33.22
2018-02-24T06:38:14.239Z,30.65
2018-02-24T06:40:40.698Z,28.98
2018-02-24T06:43:07.827Z,31.73
2018-02-24T06:45:34.206Z,30.23
2018-02-24T06:48:00.614Z,31.23
2018-02-24T06:50:27.737Z,28.05
2018-02-24T06:52:54.141Z,32.47
2018-02-24T06:55:27.566Z,33.00
2018-02-24T06:57:53.945Z,30.37
2018-02-24T07:00:20.516Z,31.00
2018-02-24T07:02:46.927Z,30.88
2018-02-24T07:05:13.339Z,30.33
2018-02-24T07:07:40.486Z,30.25
2018-02-24T07:10:07.593Z,27.98
2018-02-24T07:12:34.009Z,28.85
2018-02-24T07:15:00.394Z,28.58
2018-02-24T07:17:26.784Z,27.05
2018-02-24T07:19:53.165Z,28.17
2018-02-24T07:22:19.556Z,27.02
2018-02-24T07:24:45.958Z,29.02
2018-02-24T07:27:12.359Z,27.70
2018-02-24T07:29:38.762Z,27.92
2018-02-24T07:32:05.122Z,28.30
2018-02-24T07:34:31.525Z,26.73
2018-02-24T07:36:57.903Z,26.20
2018-02-24T07:39:24.294Z,25.27
2018-02-24T07:41:50.774Z,28.27
2018-02-24T07:44:17.889Z,27.25
2018-02-24T07:46:44.342Z,25.05
2018-02-24T07:49:10.714Z,27.30
2018-02-24T07:51:37.115Z,27.15
2018-02-24T07:54:03.502Z,26.77
2018-02-24T07:56:29.911Z,27.70
2018-02-24T07:58:57.034Z,27.77
2018-02-24T08:01:23.460Z,27.23
2018-02-24T08:03:49.836Z,27.27
2018-02-24T08:06:16.245Z,27.92
2018-02-24T08:08:43.388Z,27.60
2018-02-24T08:11:10.602Z,27.02
2018-02-24T08:13:37.162Z,23.60
2018-02-24T08:16:05.402Z,25.40
2018-02-24T08:18:31.820Z,23.97
2018-02-24T08:20:59.000Z,25.48
2018-02-24T08:23:25.421Z,26.48
2018-02-24T08:25:51.822Z,25.30
2018-02-24T08:28:18.946Z,24.35
2018-02-24T08:30:45.346Z,25.00
2018-02-24T08:33:11.751Z,26.05
2018-02-24T08:35:38.926Z,23.87
2018-02-24T08:38:05.314Z,24.00
2018-02-24T08:40:32.458Z,23.12
2018-02-24T08:42:58.840Z,18.98
2018-02-24T08:45:25.249Z,19.05
2018-02-24T08:47:52.402Z,15.50
2018-02-24T08:50:19.531Z,19.40
2018-02-24T08:52:45.975Z,15.30
2018-02-24T08:55:12.359Z,17.80
2018-02-24T08:57:38.775Z,18.27
2018-02-24T09:00:05.177Z,13.77
2018-02-24T09:02:32.669Z,15.82
2018-02-24T09:04:59.085Z,18.15
2018-02-24T09:07:26.232Z,17.85
2018-02-24T09:09:54.669Z,19.02
2018-02-24T09:12:21.210Z,13.95
2018-02-24T09:14:47.605Z,15.38
2018-02-24T09:17:14.019Z,16.12
2018-02-24T09:19:41.147Z,19.02
2018-02-24T09:22:07.543Z,17.23
2018-02-24T09:24:33.918Z,19.05
2018-02-24T09:27:00.337Z,17.30
2018-02-24T09:29:26.728Z,17.87
2018-02-24T09:31:53.154Z,15.23
2018-02-24T09:34:19.579Z,18.90
2018-02-24T09:36:46.726Z,18.15
2018-02-24T09:39:13.914Z,19.75
2018-02-24T09:41:40.311Z,19.48
2018-02-24T09:44:07.456Z,16.98
2018-02-24T09:46:34.665Z,19.30
2018-02-24T09:49:01.085Z,19.55
2018-02-24T09:51:27.494Z,17.08
2018-02-24T09:53:54.619Z,14.32
2018-02-24T09:56:21.032Z,14.87
2018-02-24T09:58:47.412Z,17.90
2018-02-24T10:01:14.587Z,15.80
2018-02-24T10:03:41.006Z,16.40
2018-02-24T10:06:07.439Z,15.70
2018-02-24T10:08:33.814Z,14.25
2018-02-24T10:11:00.219Z,14.48
2018-02-24T10:13:26.890Z,17.23
2018-02-24T10:15:53.315Z,15.40
2018-02-24T10:18:19.716Z,13.10
2018-02-24T10:20:46.096Z,15.75
2018-02-24T10:23:12.529Z,14.65
2018-02-24T10:25:38.934Z,13.30
2018-02-24T10:28:05.374Z,14.38
2018-02-24T10:30:31.775Z,17.35
2018-02-24T10:32:58.893Z,13.85
2018-02-24T10:35:25.290Z,12.40
2018-02-24T10:37:51.657Z,15.45
2018-02-24T10:40:18.094Z,15.52
2018-02-24T10:42:45.238Z,15.30
2018-02-24T10:45:11.653Z,14.40
2018-02-24T10:47:38.035Z,13.32
2018-02-24T10:50:05.179Z,12.90
2018-02-24T10:52:32.319Z,9.82
2018-02-24T10:54:59.477Z,10.90
2018-02-24T10:57:25.907Z,13.70
2018-02-24T10:59:52.338Z,10.77
2018-02-24T11:02:19.482Z,10.25
2018-02-24T11:04:45.893Z,10.90
2018-02-24T11:07:12.298Z,10.95
2018-02-24T11:09:38.695Z,12.18
2018-02-24T11:12:05.841Z,9.88
2018-02-24T11:14:32.225Z,11.10
2018-02-24T11:16:58.646Z,9.27
2018-02-24T11:19:25.763Z,9.77
2018-02-24T11:21:52.140Z,9.45
2018-02-24T11:24:18.535Z,10.95
2018-02-24T11:26:44.918Z,11.32
2018-02-24T11:29:11.353Z,11.02
2018-02-24T11:31:37.793Z,12.48
2018-02-24T11:34:04.186Z,11.73
2018-02-24T11:36:31.347Z,12.68
2018-02-24T11:38:58.496Z,11.98
2018-02-24T11:41:25.695Z,8.95
2018-02-24T11:43:52.145Z,13.18
2018-02-24T11:46:18.610Z,13.15
2018-02-24T11:48:45.002Z,13.82
2018-02-24T11:51:11.417Z,14.00
2018-02-24T11:53:37.815Z,11.60
2018-02-24T11:56:04.974Z,15.30
2018-02-24T11:58:32.171Z,17.52
2018-02-24T12:00:58.587Z,18.05
2018-02-24T12:03:25.008Z,16.20
2018-02-24T12:05:51.393Z,15.93
2018-02-24T12:08:17.798Z,16.33
2018-02-24T12:10:44.210Z,16.80
2018-02-24T12:13:17.541Z,17.05
2018-02-24T12:15:43.971Z,18.90
2018-02-24T12:18:10.411Z,17.20
2018-02-24T12:20:36.836Z,18.67
2018-02-24T12:23:03.219Z,17.65
2018-02-24T12:25:30.379Z,17.35
2018-02-24T12:27:57.518Z,17.00
2018-02-24T12:30:23.965Z,17.40
2018-02-24T12:32:51.124Z,17.23
2018-02-24T12:35:18.270Z,16.33
2018-02-24T12:37:45.422Z,17.08
2018-02-24T12:40:11.852Z,16.48
2018-02-24T12:42:39.020Z,16.58
2018-02-24T12:45:05.433Z,17.20
2018-02-24T12:47:32.566Z,17.85
2018-02-24T12:49:58.963Z,16.92
2018-02-24T12:52:25.385Z,17.17
2018-02-24T12:54:51.866Z,17.47
2018-02-24T12:57:18.274Z,16.45
2018-02-24T12:59:44.682Z,16.00
2018-02-24T13:02:11.139Z,16.60
2018-02-24T13:04:37.581Z,16.30
2018-02-24T13:07:04.018Z,15.68
2018-02-24T13:09:30.398Z,16.08
2018-02-24T13:11:57.577Z,16.85
2018-02-24T13:14:23.958Z,15.10
2018-02-24T13:16:50.368Z,15.77
2018-02-24T13:19:16.790Z,15.95
2018-02-24T13:21:43.186Z,15.32
2018-02-24T13:24:10.366Z,15.05
2018-02-24T13:26:36.769Z,16.10
2018-02-24T13:29:03.969Z,15.32
2018-02-24T13:31:30.384Z,16.45
2018-02-24T13:33:56.802Z,16.50
2018-02-24T13:36:23.281Z,15.77
2018-02-24T13:38:49.719Z,15.23
2018-02-24T13:41:16.169Z,14.23
2018-02-24T13:43:42.538Z,15.75
2018-02-24T13:46:08.955Z,15.80
2018-02-24T13:48:35.364Z,15.20
2018-02-24T13:51:01.776Z,16.00
2018-02-24T13:53:28.157Z,15.10
2018-02-24T13:55:54.555Z,14.82
2018-02-24T13:58:20.932Z,15.40
2018-02-24T14:00:48.206Z,15.82
2018-02-24T14:03:14.599Z,13.93
2018-02-24T14:05:41.019Z,15.63
2018-02-24T14:08:07.426Z,15.07
2018-02-24T14:10:33.817Z,14.20
2018-02-24T14:13:00.222Z,14.80
2018-02-24T14:15:26.665Z,14.40
2018-02-24T14:17:53.075Z,14.20
2018-02-24T14:20:19.462Z,15.25
2018-02-24T14:22:46.628Z,14.67
2018-02-24T14:25:13.062Z,14.57
2018-02-24T14:27:40.260Z,14.95
2018-02-24T14:30:06.710Z,15.45
2018-02-24T14:32:33.093Z,14.75
2018-02-24T14:34:59.538Z,13.93
2018-02-24T14:37:25.966Z,15.30
2018-02-24T14:39:52.479Z,15.93
2018-02-24T14:42:19.643Z,15.43
2018-02-24T14:44:46.053Z,15.38
2018-02-24T14:47:13.223Z,14.00
2018-02-24T14:49:40.366Z,14.68
2018-02-24T14:52:07.601Z,13.82
2018-02-24T14:54:33.975Z,14.48
2018-02-24T14:57:00.377Z,14.20
2018-02-24T14:59:27.549Z,13.15
2018-02-24T15:01:54.796Z,13.50
2018-02-24T15:04:21.925Z,12.73
2018-02-24T15:06:48.385Z,13.27
2018-02-24T15:09:15.738Z,12.50
2018-02-24T15:11:42.900Z,13.90
2018-02-24T15:14:10.099Z,13.10
2018-02-24T15:16:36.504Z,125.28
2018-02-24T15:19:02.938Z,18.42
2018-02-24T15:21:29.355Z,14.65
2018-02-24T15:23:56.565Z,12.00
2018-02-24T15:26:22.954Z,13.10
2018-02-24T15:28:49.394Z,11.40
2018-02-24T15:31:15.795Z,12.70
2018-02-24T15:33:42.945Z,15.75
2018-02-24T15:36:09.447Z,10.45
2018-02-24T15:38:35.922Z,11.50
2018-02-24T15:41:03.119Z,12.63
2018-02-24T15:43:29.558Z,11.98
2018-02-24T15:45:55.959Z,11.27
2018-02-24T15:48:22.378Z,20.45
2018-02-24T15:50:49.534Z,20.42
2018-02-24T15:53:16.745Z,22.73
2018-02-24T15:55:43.151Z,11.43
2018-02-24T15:58:09.646Z,10.50
2018-02-24T16:00:36.795Z,9.00
2018-02-24T16:03:03.989Z,9.73
2018-02-24T16:05:30.400Z,9.55
2018-02-24T16:07:57.590Z,8.85
2018-02-24T16:10:23.965Z,11.00
2018-02-24T16:12:50.446Z,13.05
2018-02-24T16:15:16.828Z,14.43
2018-02-24T16:17:43.269Z,14.93
2018-02-24T16:20:09.686Z,8.57
2018-02-24T16:22:36.129Z,8.57
2018-02-24T16:25:02.601Z,7.80
2018-02-24T16:27:29.007Z,8.90
2018-02-24T16:29:55.418Z,8.35
2018-02-24T16:32:21.805Z,8.13
2018-02-24T16:34:48.202Z,9.43
2018-02-24T16:37:15.326Z,9.50
2018-02-24T16:39:41.748Z,8.05
2018-02-24T16:42:08.135Z,15.45
2018-02-24T16:44:35.375Z,11.50
2018-02-24T16:47:01.782Z,12.25
2018-02-24T16:49:28.182Z,12.50
2018-02-24T16:51:54.589Z,13.30
2018-02-24T16:54:21.725Z,13.20
2018-02-24T16:56:48.133Z,14.68
2018-02-24T16:59:14.554Z,14.77
2018-02-24T17:01:40.998Z,16.30
2018-02-24T17:04:07.370Z,15.95
2018-02-24T17:06:33.777Z,17.05
2018-02-24T17:09:00.217Z,17.92
2018-02-24T17:11:26.602Z,17.67
2018-02-24T17:13:53.051Z,18.60
2018-02-24T17:16:19.442Z,16.55
2018-02-24T17:18:45.854Z,17.42
2018-02-24T17:21:12.246Z,18.75
2018-02-24T17:23:38.690Z,18.35
2018-02-24T17:26:05.114Z,17.17
2018-02-24T17:28:31.544Z,17.98
2018-02-24T17:30:57.937Z,17.48
2018-02-24T17:33:24.359Z,16.67
2018-02-24T17:35:50.758Z,17.87
2018-02-24T17:38:17.235Z,18.17
2018-02-24T17:40:43.615Z,16.98
2018-02-24T17:43:10.064Z,19.25
2018-02-24T17:45:36.467Z,17.80
2018-02-24T17:48:03.690Z,18.90
2018-02-24T17:50:30.138Z,19.80
2018-02-24T17:52:56.581Z,18.17
2018-02-24T17:55:23.761Z,18.30
2018-02-24T17:57:50.222Z,18.62
2018-02-24T18:00:16.694Z,18.87
2018-02-24T18:02:43.163Z,18.70
2018-02-24T18:05:09.610Z,19.92
2018-02-24T18:07:36.046Z,19.83
2018-02-24T18:10:02.492Z,18.20
2018-02-24T18:12:28.967Z,17.92
2018-02-24T18:14:55.479Z,18.05
2018-02-24T18:17:21.923Z,18.42
2018-02-24T18:19:48.311Z,19.80
2018-02-24T18:22:14.737Z,18.70
2018-02-24T18:24:41.142Z,18.95
2018-02-24T18:27:07.547Z,20.08
2018-02-24T18:29:33.926Z,19.40
2018-02-24T18:32:01.074Z,20.45
2018-02-24T18:34:28.225Z,18.52
2018-02-24T18:36:55.358Z,18.98
2018-02-24T18:39:21.798Z,18.10
2018-02-24T18:41:48.221Z,17.20
2018-02-24T18:44:14.643Z,18.20
2018-02-24T18:46:41.098Z,18.90
2018-02-24T18:49:07.521Z,18.30
2018-02-24T18:51:33.930Z,17.53
2018-02-24T18:54:00.365Z,17.90
2018-02-24T18:56:26.762Z,16.73
2018-02-24T18:58:53.946Z,17.58
2018-02-24T19:01:20.424Z,16.80
2018-02-24T19:03:46.871Z,17.00
2018-02-24T19:06:13.316Z,18.45
2018-02-24T19:08:40.506Z,19.23
2018-02-24T19:11:07.018Z,18.05
2018-02-24T19:13:33.431Z,17.37
2018-02-24T19:16:00.589Z,15.60
2018-02-24T19:18:27.746Z,17.23
2018-02-24T19:20:54.967Z,16.52
2018-02-24T19:23:21.388Z,16.45
2018-02-24T19:25:47.870Z,17.15
2018-02-24T19:28:15.194Z,16.87
2018-02-24T19:30:41.689Z,16.98
2018-02-24T19:33:08.114Z,16.90
2018-02-24T19:35:34.550Z,17.00
2018-02-24T19:38:08.597Z,16.37
2018-02-24T19:40:35.063Z,16.52
2018-02-24T19:43:01.447Z,17.62
2018-02-24T19:45:27.872Z,16.98
2018-02-24T19:47:54.287Z,16.80
2018-02-24T19:50:21.490Z,17.50
2018-02-24T19:52:47.891Z,18.12
2018-02-24T19:55:14.396Z,17.45
2018-02-24T19:57:41.546Z,17.05
2018-02-24T20:00:08.733Z,17.62
2018-02-24T20:02:35.165Z,17.30
2018-02-24T20:05:01.611Z,16.85
2018-02-24T20:07:28.020Z,16.40
2018-02-24T20:09:55.216Z,16.67
2018-02-24T20:12:21.627Z,16.48
2018-02-24T20:14:48.065Z,16.45
2018-02-24T20:17:14.479Z,15.65
2018-02-24T20:19:40.903Z,17.05
2018-02-24T20:22:08.107Z,16.67
2018-02-24T20:24:34.534Z,14.60
2018-02-24T20:27:01.073Z,15.40
2018-02-24T20:29:27.515Z,15.40
2018-02-24T20:31:53.969Z,13.40
2018-02-24T20:34:20.440Z,14.23
2018-02-24T20:36:47.587Z,13.95
2018-02-24T20:39:14.750Z,11.73
2018-02-24T20:41:41.196Z,13.40
2018-02-24T20:44:07.643Z,13.57
2018-02-24T20:46:34.059Z,12.30
2018-02-24T20:49:00.530Z,10.40
2018-02-24T20:51:27.077Z,11.20
2018-02-24T20:53:53.502Z,9.70
2018-02-24T20:56:19.901Z,10.18
2018-02-24T20:58:46.361Z,9.15
2018-02-24T21:01:12.857Z,8.32
2018-02-24T21:03:40.205Z,8.65
2018-02-24T21:06:07.386Z,7.78
2018-02-24T21:08:33.843Z,9.82
2018-02-24T21:11:00.260Z,9.93
2018-02-24T21:13:26.685Z,8.90
2018-02-24T21:15:53.127Z,9.15
2018-02-24T21:18:19.667Z,10.07
2018-02-24T21:20:46.067Z,10.00
2018-02-24T21:23:13.265Z,10.65
2018-02-24T21:25:39.757Z,8.60
2018-02-24T21:28:06.934Z,10.30
2018-02-24T21:30:33.366Z,9.50
2018-02-24T21:33:00.051Z,10.25
2018-02-24T21:35:28.315Z,9.52
2018-02-24T21:37:54.786Z,10.30
2018-02-24T21:40:21.927Z,10.10
2018-02-24T21:42:48.353Z,9.65
2018-02-24T21:45:14.800Z,10.23
2018-02-24T21:47:41.266Z,9.40
2018-02-24T21:50:07.733Z,8.80
2018-02-24T21:52:34.270Z,9.77
2018-02-24T21:55:00.703Z,9.55
2018-02-24T21:57:27.164Z,9.32
2018-02-24T21:59:53.578Z,9.38
2018-02-24T22:02:19.994Z,9.07
2018-02-24T22:04:46.455Z,9.45
2018-02-24T22:07:12.904Z,8.10
2018-02-24T22:09:39.396Z,8.45
2018-02-24T22:12:05.797Z,8.00
2018-02-24T22:14:32.942Z,7.57
2018-02-24T22:16:59.339Z,8.30
2018-02-24T22:19:25.764Z,7.25
2018-02-24T22:21:52.155Z,8.20
2018-02-24T22:24:19.318Z,8.73
2018-02-24T22:26:46.470Z,8.10
2018-02-24T22:29:13.643Z,8.00
2018-02-24T22:31:40.043Z,8.52
2018-02-24T22:34:07.221Z,8.65
2018-02-24T22:36:33.642Z,8.60
2018-02-24T22:39:00.792Z,8.40
2018-02-24T22:41:27.231Z,8.13
2018-02-24T22:43:53.615Z,7.82
2018-02-24T22:46:20.039Z,8.17
2018-02-24T22:48:52.702Z,7.75
2018-02-24T22:51:19.130Z,8.30
2018-02-24T22:53:45.558Z,7.82
2018-02-24T22:56:11.974Z,7.65
2018-02-24T22:58:39.107Z,8.65
2018-02-24T23:01:05.557Z,7.77
2018-02-24T23:03:32.742Z,7.87
2018-02-24T23:05:59.137Z,8.60
2018-02-24T23:08:26.307Z,7.78
2018-02-24T23:10:52.717Z,8.63
2018-02-24T23:13:19.154Z,8.87
2018-02-24T23:15:46.303Z,9.63
2018-02-24T23:18:12.717Z,7.80
2018-02-24T23:20:39.113Z,7.80
2018-02-24T23:23:05.528Z,7.93
2018-02-24T23:25:32.661Z,8.48
2018-02-24T23:27:59.872Z,8.68
2018-02-24T23:30:26.257Z,8.40
2018-02-24T23:32:53.409Z,8.60
2018-02-24T23:35:20.570Z,8.75
2018-02-24T23:37:46.990Z,8.57
2018-02-24T23:40:14.194Z,8.05
2018-02-24T23:42:40.610Z,9.38
2018-02-24T23:45:07.005Z,9.50
2018-02-24T23:47:34.181Z,8.95
2018-02-24T23:50:00.604Z,9.20
2018-02-24T23:52:27.006Z,9.27
2018-02-24T23:54:53.430Z,8.90
2018-02-24T23:57:19.831Z,9.20
2018-02-24T23:59:46.282Z,8.60
